Time;durP1;ratioP1;P1;durP2;ratioP2;P2;SDS_P1;SDS_P2;PMS_P1;PMS_P2;Temp;Humidity;BMP_temperature;BMP_pressure;BME280_temperature;BME280_humidity;BME280_pressure;Samples;Min_cycle;Max_cycle;Signal;HPM_P1;HPM_P2
2020/12/12 00:01:36;;;;;;;25.08;14.48;;;5.90;94.90;;;;;;5028984;28;20052;-87
2020/12/12 00:04:02;;;;;;;26.65;14.90;;;5.90;94.90;;;;;;5053275;28;20025;-87
2020/12/12 00:06:28;;;;;;;23.75;13.93;;;5.90;94.90;;;;;;5025971;28;20039;-87
2020/12/12 00:08:53;;;;;;;27.98;16.27;;;5.90;94.90;;;;;;5037554;28;20031;-87
2020/12/12 00:11:25;;;;;;;27.30;16.45;;;5.90;94.80;;;;;;5015059;28;20052;-88
2020/12/12 00:13:50;;;;;;;25.88;14.80;;;5.90;94.90;;;;;;5013095;28;20090;-87
2020/12/12 00:16:17;;;;;;;22.88;13.95;;;5.90;95.00;;;;;;5004250;28;20123;-87
2020/12/12 00:18:43;;;;;;;25.52;14.10;;;5.90;95.00;;;;;;5036604;28;20021;-87
2020/12/12 00:21:12;;;;;;;23.33;13.68;;;5.90;95.00;;;;;;5037594;28;20025;-87
2020/12/12 00:23:37;;;;;;;26.42;15.73;;;5.90;95.00;;;;;;5015378;28;20419;-87
2020/12/12 00:26:03;;;;;;;24.63;15.00;;;6.00;95.00;;;;;;4997142;28;20109;-87
2020/12/12 00:28:31;;;;;;;31.00;17.00;;;6.00;95.10;;;;;;5020775;28;20052;-88
2020/12/12 00:30:58;;;;;;;35.42;19.23;;;6.00;95.10;;;;;;5020559;28;20025;-87
2020/12/12 00:33:23;;;;;;;32.05;19.10;;;5.90;94.90;;;;;;5048970;28;20508;-88
2020/12/12 00:35:49;;;;;;;34.97;19.42;;;5.90;95.00;;;;;;5047326;28;20026;-87
2020/12/12 00:38:15;;;;;;;35.00;19.77;;;5.90;95.00;;;;;;5019569;28;21743;-88
2020/12/12 00:40:41;;;;;;;36.25;20.17;;;6.00;95.10;;;;;;5033770;28;20493;-88
2020/12/12 00:43:06;;;;;;;38.08;20.83;;;5.90;95.10;;;;;;5037980;28;20754;-87
2020/12/12 00:45:32;;;;;;;42.83;23.40;;;6.00;95.10;;;;;;5031004;28;20139;-88
2020/12/12 00:47:58;;;;;;;35.03;20.13;;;5.90;94.90;;;;;;5040363;28;20030;-88
2020/12/12 00:50:23;;;;;;;38.40;21.40;;;5.90;95.00;;;;;;5027839;28;20036;-88
2020/12/12 00:52:50;;;;;;;39.80;22.10;;;5.90;95.10;;;;;;5036753;28;20033;-88
2020/12/12 00:55:15;;;;;;;55.05;26.27;;;5.90;95.10;;;;;;5032852;28;20756;-88
2020/12/12 00:57:41;;;;;;;37.45;21.42;;;5.90;94.90;;;;;;5007105;28;20036;-87
2020/12/12 01:00:07;;;;;;;41.08;22.15;;;5.90;95.10;;;;;;5020049;28;20033;-88
2020/12/12 01:02:33;;;;;;;42.42;22.73;;;5.90;95.00;;;;;;5020254;28;20032;-88
2020/12/12 01:05:00;;;;;;;34.33;19.95;;;5.90;95.00;;;;;;5016070;28;20025;-88
2020/12/12 01:07:26;;;;;;;34.63;19.35;;;5.90;95.10;;;;;;5046540;28;20037;-87
2020/12/12 01:09:52;;;;;;;39.70;22.15;;;5.90;95.20;;;;;;5019822;28;20029;-89
2020/12/12 01:12:18;;;;;;;39.00;21.15;;;5.90;95.10;;;;;;5017852;28;20029;-87
2020/12/12 01:14:44;;;;;;;45.22;23.40;;;6.00;95.40;;;;;;5052656;28;20052;-87
2020/12/12 01:17:10;;;;;;;38.65;21.10;;;6.00;95.10;;;;;;5001499;28;20029;-87
2020/12/12 01:19:36;;;;;;;42.47;22.70;;;6.00;95.20;;;;;;5032057;28;20102;-87
2020/12/12 01:22:01;;;;;;;39.95;22.27;;;6.00;95.20;;;;;;5030063;28;20017;-88
2020/12/12 01:24:27;;;;;;;43.25;23.40;;;6.00;95.20;;;;;;5040069;28;20120;-87
2020/12/12 01:26:53;;;;;;;64.22;28.75;;;6.00;95.20;;;;;;5040096;28;20044;-87
2020/12/12 01:29:18;;;;;;;44.25;23.20;;;6.00;95.10;;;;;;5038941;28;20583;-88
2020/12/12 01:31:47;;;;;;;43.85;23.05;;;6.00;95.20;;;;;;5053199;28;20379;-87
2020/12/12 01:34:13;;;;;;;44.72;23.40;;;6.00;95.20;;;;;;5053343;28;20055;-88
2020/12/12 01:36:39;;;;;;;42.83;21.92;;;6.00;95.20;;;;;;5036194;28;20051;-87
2020/12/12 01:39:04;;;;;;;41.13;22.95;;;6.00;95.20;;;;;;4990919;28;20033;-87
2020/12/12 01:41:30;;;;;;;44.22;24.23;;;6.00;95.20;;;;;;5032744;28;20028;-88
2020/12/12 01:43:56;;;;;;;44.78;22.73;;;6.00;95.20;;;;;;5042625;28;20025;-87
2020/12/12 01:46:24;;;;;;;37.92;21.50;;;6.00;95.20;;;;;;5002771;28;20037;-88
2020/12/12 01:48:54;;;;;;;40.85;22.42;;;6.00;95.30;;;;;;5051623;28;20025;-87
2020/12/12 01:51:21;;;;;;;43.00;21.70;;;6.00;95.30;;;;;;5053837;28;20032;-88
2020/12/12 01:53:52;;;;;;;39.28;22.00;;;6.00;95.20;;;;;;5019429;28;20313;-88
2020/12/12 01:56:18;;;;;;;34.25;19.15;;;6.10;95.30;;;;;;5035631;28;20036;-88
2020/12/12 01:58:44;;;;;;;39.13;21.38;;;6.10;95.30;;;;;;5036039;28;20420;-88
2020/12/12 02:01:13;;;;;;;42.75;22.10;;;6.10;95.30;;;;;;5035473;28;20044;-88
2020/12/12 02:03:43;;;;;;;41.90;21.65;;;6.10;95.30;;;;;;5038977;28;20515;-88
2020/12/12 02:06:13;;;;;;;43.38;22.17;;;6.10;95.40;;;;;;5034367;28;20120;-88
2020/12/12 02:08:39;;;;;;;44.90;22.50;;;6.10;95.30;;;;;;5056969;28;20029;-87
2020/12/12 02:11:09;;;;;;;41.25;21.92;;;6.10;95.30;;;;;;5060919;28;20087;-88
2020/12/12 02:13:35;;;;;;;37.75;19.80;;;6.10;95.40;;;;;;5026855;28;20037;-88
2020/12/12 02:16:01;;;;;;;44.58;23.45;;;6.20;95.40;;;;;;5041958;28;20029;-87
2020/12/12 02:18:26;;;;;;;42.47;21.52;;;6.10;95.40;;;;;;5043225;28;20056;-88
2020/12/12 02:21:00;;;;;;;36.95;20.13;;;6.10;95.40;;;;;;5000697;28;20040;-88
2020/12/12 02:23:26;;;;;;;33.35;19.42;;;6.10;95.40;;;;;;5042059;28;20021;-88
2020/12/12 02:25:53;;;;;;;37.05;20.10;;;6.10;95.40;;;;;;5034315;28;20040;-88
2020/12/12 02:28:22;;;;;;;39.33;19.70;;;6.20;95.50;;;;;;5006856;28;20057;-87
2020/12/12 02:30:48;;;;;;;35.10;19.17;;;6.20;95.40;;;;;;5034298;28;20078;-87
2020/12/12 02:33:15;;;;;;;35.13;19.83;;;6.20;95.40;;;;;;5020993;28;20025;-88
2020/12/12 02:35:41;;;;;;;36.88;19.00;;;6.20;95.40;;;;;;5024357;28;20021;-88
2020/12/12 02:38:06;;;;;;;29.65;17.48;;;6.20;95.50;;;;;;5013991;28;20482;-87
2020/12/12 02:40:32;;;;;;;37.95;19.85;;;6.20;95.50;;;;;;5014673;28;20021;-87
2020/12/12 02:42:58;;;;;;;29.90;17.30;;;6.20;95.50;;;;;;5027765;28;20026;-88
2020/12/12 02:45:23;;;;;;;38.30;19.48;;;6.20;95.50;;;;;;5017101;28;20087;-88
2020/12/12 02:47:49;;;;;;;29.40;17.00;;;6.20;95.50;;;;;;5058381;28;20029;-88
2020/12/12 02:50:25;;;;;;;32.42;17.58;;;6.20;95.50;;;;;;5028471;28;20656;-88
2020/12/12 02:52:51;;;;;;;44.17;20.55;;;6.30;95.50;;;;;;5034526;28;20068;-88
2020/12/12 02:55:16;;;;;;;35.55;19.77;;;6.20;95.50;;;;;;5028948;28;20049;-88
2020/12/12 02:57:42;;;;;;;42.60;20.25;;;6.20;95.50;;;;;;5019003;28;20037;-87
2020/12/12 03:00:14;;;;;;;43.65;21.60;;;6.20;95.50;;;;;;5028442;28;20021;-88
2020/12/12 03:02:40;;;;;;;42.25;20.42;;;6.20;95.50;;;;;;5034217;28;20026;-88
2020/12/12 03:05:06;;;;;;;35.80;19.30;;;6.20;95.50;;;;;;5030768;28;20106;-88
2020/12/12 03:07:33;;;;;;;38.72;20.17;;;6.20;95.50;;;;;;5019114;28;20088;-87
2020/12/12 03:09:58;;;;;;;41.08;20.83;;;6.20;95.50;;;;;;5036029;28;20045;-88
2020/12/12 03:12:24;;;;;;;39.50;20.55;;;6.20;95.50;;;;;;5058239;28;20073;-88
2020/12/12 03:14:50;;;;;;;40.47;21.33;;;6.20;95.60;;;;;;5039199;28;20024;-88
2020/12/12 03:17:16;;;;;;;33.75;18.27;;;6.20;95.50;;;;;;5025716;28;20029;-88
2020/12/12 03:19:41;;;;;;;39.63;21.23;;;6.20;95.60;;;;;;5041325;28;20029;-87
2020/12/12 03:22:07;;;;;;;34.97;19.17;;;6.20;95.50;;;;;;5057151;28;20039;-87
2020/12/12 03:24:33;;;;;;;42.17;20.23;;;6.20;95.60;;;;;;5041515;28;20033;-87
2020/12/12 03:27:00;;;;;;;34.45;18.17;;;6.20;95.60;;;;;;5017373;28;20028;-87
2020/12/12 03:29:26;;;;;;;36.38;18.92;;;6.20;95.60;;;;;;5053190;28;20042;-87
2020/12/12 03:31:51;;;;;;;39.20;19.20;;;6.20;95.60;;;;;;5053809;28;20022;-87
2020/12/12 03:34:17;;;;;;;33.65;18.40;;;6.30;95.60;;;;;;5047945;28;20061;-87
2020/12/12 03:36:43;;;;;;;33.35;18.73;;;6.30;95.60;;;;;;5045288;28;20052;-87
2020/12/12 03:39:09;;;;;;;37.33;18.65;;;6.30;95.60;;;;;;5040004;28;20214;-87
2020/12/12 03:41:35;;;;;;;32.50;17.75;;;6.30;95.70;;;;;;5033715;28;20029;-87
2020/12/12 03:44:01;;;;;;;37.83;19.25;;;6.30;95.70;;;;;;5050426;28;20093;-86
2020/12/12 03:46:27;;;;;;;36.30;19.08;;;6.30;95.70;;;;;;5020742;28;20063;-87
2020/12/12 03:48:52;;;;;;;33.67;18.40;;;6.30;95.70;;;;;;5018588;28;20060;-86
2020/12/12 03:51:18;;;;;;;36.55;18.48;;;6.30;95.70;;;;;;5023985;28;20140;-87
2020/12/12 03:53:44;;;;;;;35.60;18.55;;;6.30;95.70;;;;;;5019175;28;20108;-87
2020/12/12 03:56:10;;;;;;;32.95;18.27;;;6.30;95.70;;;;;;5003499;28;20503;-87
2020/12/12 03:58:35;;;;;;;35.67;18.27;;;6.30;95.70;;;;;;5006168;28;20030;-86
2020/12/12 04:01:01;;;;;;;35.33;18.08;;;6.40;95.70;;;;;;5019615;28;20029;-87
2020/12/12 04:03:27;;;;;;;39.67;19.58;;;6.40;95.70;;;;;;4995725;28;20029;-87
2020/12/12 04:05:52;;;;;;;31.92;17.95;;;6.30;95.70;;;;;;5052708;28;20513;-87
2020/12/12 04:08:18;;;;;;;31.83;17.15;;;6.40;95.80;;;;;;5001372;28;20029;-86
2020/12/12 04:10:44;;;;;;;34.05;17.77;;;6.40;95.80;;;;;;5001821;28;20424;-87
2020/12/12 04:13:09;;;;;;;39.70;19.75;;;6.40;95.80;;;;;;5035266;28;20385;-87
2020/12/12 04:15:35;;;;;;;43.33;19.38;;;6.40;95.80;;;;;;5030252;28;20117;-87
2020/12/12 04:18:01;;;;;;;38.75;20.52;;;6.40;95.80;;;;;;5024577;28;20033;-87
2020/12/12 04:20:27;;;;;;;48.90;23.02;;;6.40;95.80;;;;;;5017275;28;20038;-87
2020/12/12 04:22:53;;;;;;;43.50;21.33;;;6.40;95.80;;;;;;5020674;28;20362;-87
2020/12/12 04:25:18;;;;;;;37.60;19.42;;;6.40;95.70;;;;;;5034399;28;20064;-87
2020/12/12 04:27:44;;;;;;;36.70;19.95;;;6.40;95.80;;;;;;5000837;28;20049;-87
2020/12/12 04:30:10;;;;;;;43.88;21.20;;;6.40;95.80;;;;;;5013888;28;20056;-87
2020/12/12 04:32:36;;;;;;;45.35;21.65;;;6.40;95.80;;;;;;5015367;28;20478;-87
2020/12/12 04:35:02;;;;;;;45.28;21.50;;;6.40;95.80;;;;;;5015590;28;20025;-87
2020/12/12 04:37:28;;;;;;;49.28;21.70;;;6.40;95.80;;;;;;5016225;28;20056;-87
2020/12/12 04:39:54;;;;;;;45.75;21.40;;;6.40;95.80;;;;;;5016907;28;20057;-88
2020/12/12 04:42:20;;;;;;;41.80;20.88;;;6.40;95.80;;;;;;5000693;28;20041;-88
2020/12/12 04:44:46;;;;;;;38.70;20.45;;;6.40;95.80;;;;;;5026354;28;20021;-88
2020/12/12 04:47:14;;;;;;;42.70;21.30;;;6.40;95.80;;;;;;5036262;28;20036;-87
2020/12/12 04:49:40;;;;;;;42.67;21.00;;;6.40;95.80;;;;;;5022794;28;20013;-87
2020/12/12 04:52:06;;;;;;;40.10;20.52;;;6.50;95.80;;;;;;5018090;28;20021;-88
2020/12/12 04:54:34;;;;;;;45.20;21.58;;;6.50;95.80;;;;;;5025342;28;20029;-88
2020/12/12 04:57:04;;;;;;;32.72;18.20;;;6.40;95.80;;;;;;5029590;28;20117;-88
2020/12/12 04:59:32;;;;;;;39.80;19.42;;;6.40;95.90;;;;;;5012416;28;20037;-88
2020/12/12 05:02:02;;;;;;;42.45;19.77;;;6.50;95.90;;;;;;5036314;28;20034;-88
2020/12/12 05:04:28;;;;;;;38.13;19.15;;;6.50;95.90;;;;;;5017952;28;20047;-87
2020/12/12 05:06:54;;;;;;;35.72;18.48;;;6.40;95.80;;;;;;5015224;28;20037;-88
2020/12/12 05:09:20;;;;;;;33.35;16.85;;;6.50;95.90;;;;;;5014614;28;20190;-88
2020/12/12 05:11:46;;;;;;;38.95;18.92;;;6.50;95.90;;;;;;5015781;28;20401;-88
2020/12/12 05:14:17;;;;;;;43.10;18.98;;;6.50;95.90;;;;;;5032788;28;20064;-86
2020/12/12 05:16:45;;;;;;;39.10;19.70;;;6.50;95.90;;;;;;5030898;28;20052;-86
2020/12/12 05:19:12;;;;;;;39.00;18.58;;;6.50;95.90;;;;;;5040018;28;20037;-87
2020/12/12 05:21:54;;;;;;;38.13;19.00;;;6.50;95.90;;;;;;5014129;28;20029;-86
2020/12/12 05:24:25;;;;;;;34.03;16.38;;;6.50;95.90;;;;;;5023644;28;20486;-87
2020/12/12 05:26:50;;;;;;;35.65;18.30;;;6.50;95.90;;;;;;5015202;28;20017;-86
2020/12/12 05:29:16;;;;;;;36.08;17.88;;;6.50;95.90;;;;;;5032157;28;20060;-86
2020/12/12 05:31:43;;;;;;;41.60;19.98;;;6.50;95.90;;;;;;5015024;28;20075;-86
2020/12/12 05:34:11;;;;;;;38.97;18.95;;;6.60;96.00;;;;;;5013748;28;20053;-86
2020/12/12 05:36:39;;;;;;;36.30;17.42;;;6.60;95.90;;;;;;5013728;28;20026;-86
2020/12/12 05:39:06;;;;;;;32.92;16.67;;;6.60;95.90;;;;;;5013749;28;20032;-86
2020/12/12 05:41:33;;;;;;;39.10;17.35;;;6.60;95.90;;;;;;5029829;28;20454;-87
2020/12/12 05:43:59;;;;;;;39.85;17.55;;;6.60;96.20;;;;;;5015916;28;20036;-86
2020/12/12 05:46:26;;;;;;;30.65;14.95;;;6.60;95.90;;;;;;5033603;28;20064;-86
2020/12/12 05:48:51;;;;;;;30.35;15.88;;;6.60;96.00;;;;;;5016252;28;20033;-87
2020/12/12 05:51:18;;;;;;;28.02;14.68;;;6.60;96.00;;;;;;5032387;28;20470;-86
2020/12/12 05:53:45;;;;;;;44.42;19.42;;;6.60;96.00;;;;;;5033543;28;20029;-86
2020/12/12 05:56:11;;;;;;;40.45;18.73;;;6.60;95.70;;;;;;5015905;28;20025;-86
2020/12/12 05:58:40;;;;;;;31.23;15.52;;;6.60;95.90;;;;;;5010029;28;20037;-86
2020/12/12 06:01:16;;;;;;;41.45;17.90;;;6.60;96.00;;;;;;5034904;28;20021;-86
2020/12/12 06:04:03;;;;;;;38.63;18.25;;;6.60;96.00;;;;;;5023578;28;20116;-86
2020/12/12 06:06:29;;;;;;;32.28;17.25;;;6.60;95.90;;;;;;5032534;28;20090;-86
2020/12/12 06:09:04;;;;;;;41.75;20.80;;;6.60;95.90;;;;;;4999987;28;20187;-86
2020/12/12 06:11:32;;;;;;;40.90;18.50;;;6.60;95.80;;;;;;5033865;28;20061;-87
2020/12/12 06:14:00;;;;;;;66.43;25.23;;;6.60;95.90;;;;;;5016894;28;20038;-86
2020/12/12 06:16:28;;;;;;;40.80;18.77;;;6.60;95.70;;;;;;5028719;28;20551;-86
2020/12/12 06:19:13;;;;;;;36.80;18.40;;;6.60;95.90;;;;;;5014870;28;20030;-86
2020/12/12 06:21:46;;;;;;;44.05;21.92;;;6.60;95.90;;;;;;5022650;28;20018;-87
2020/12/12 06:24:18;;;;;;;42.67;18.98;;;6.60;95.70;;;;;;5052784;28;20086;-85
2020/12/12 06:27:02;;;;;;;33.10;17.15;;;6.60;95.80;;;;;;5056822;28;20018;-85
2020/12/12 06:29:31;;;;;;;35.40;16.45;;;6.60;95.90;;;;;;5033407;28;20106;-86
2020/12/12 06:31:58;;;;;;;40.55;19.00;;;6.60;95.90;;;;;;5005553;28;20018;-85
2020/12/12 06:34:47;;;;;;;36.90;18.05;;;6.60;95.80;;;;;;5009331;28;20034;-85
2020/12/12 06:37:37;;;;;;;32.17;16.55;;;6.50;95.90;;;;;;5016796;28;20034;-86
2020/12/12 06:40:09;;;;;;;56.97;20.65;;;6.50;95.90;;;;;;5014552;28;20385;-86
2020/12/12 06:42:39;;;;;;;40.80;19.10;;;6.60;95.90;;;;;;5021378;28;20120;-86
2020/12/12 06:45:17;;;;;;;37.58;18.73;;;6.50;95.80;;;;;;5018151;28;20781;-86
2020/12/12 06:47:48;;;;;;;34.55;16.95;;;6.60;95.90;;;;;;5016697;28;20056;-86
2020/12/12 06:50:21;;;;;;;31.58;15.68;;;6.50;95.90;;;;;;4998804;28;20026;-86
2020/12/12 06:52:47;;;;;;;37.35;18.75;;;6.60;96.00;;;;;;5016683;28;20072;-87
2020/12/12 06:55:17;;;;;;;31.67;17.23;;;6.60;95.80;;;;;;5015490;28;20478;-85
2020/12/12 06:57:44;;;;;;;31.40;15.73;;;6.60;95.90;;;;;;5013285;28;20018;-86
2020/12/12 07:00:19;;;;;;;31.45;15.95;;;6.60;95.90;;;;;;4999170;28;20534;-86
2020/12/12 07:03:20;;;;;;;28.55;14.45;;;6.60;96.00;;;;;;5014166;28;20026;-86
2020/12/12 07:05:46;;;;;;;;;;;6.70;96.00;;;;;;4986027;28;20037;-86
2020/12/12 07:08:12;;;;;;;46.85;19.52;;;6.70;96.30;;;;;;5022989;28;19905;-86
2020/12/12 07:10:43;;;;;;;33.58;15.23;;;6.70;95.90;;;;;;5002611;28;20022;-86
2020/12/12 07:13:10;;;;;;;40.65;17.77;;;6.70;96.00;;;;;;5014776;28;20022;-87
2020/12/12 07:15:37;;;;;;;48.10;20.65;;;6.70;96.00;;;;;;4994307;28;20026;-86
2020/12/12 07:18:09;;;;;;;46.63;20.13;;;6.70;95.90;;;;;;5017094;28;20034;-87
2020/12/12 07:20:36;;;;;;;44.72;18.90;;;6.70;95.90;;;;;;5023627;28;20084;-86
2020/12/12 07:23:04;;;;;;;47.30;19.25;;;6.70;95.90;;;;;;5015694;28;20486;-86
2020/12/12 07:25:31;;;;;;;42.55;18.42;;;6.60;95.80;;;;;;4999421;28;20026;-86
2020/12/12 07:27:57;;;;;;;47.75;18.58;;;6.70;95.90;;;;;;5011027;28;20113;-86
2020/12/12 07:30:23;;;;;;;41.47;17.13;;;6.70;95.90;;;;;;5012664;28;20170;-87
2020/12/12 07:32:48;;;;;;;33.95;16.10;;;6.70;95.90;;;;;;4989601;28;20121;-87
2020/12/12 07:35:14;;;;;;;30.10;13.77;;;6.70;96.00;;;;;;5017700;28;20108;-87
2020/12/12 07:37:40;;;;;;;32.08;14.40;;;6.80;96.10;;;;;;5023142;28;20494;-87
2020/12/12 07:40:05;;;;;;;38.17;16.48;;;6.80;96.10;;;;;;5011002;28;20544;-86
2020/12/12 07:42:35;;;;;;;36.35;15.18;;;6.80;96.00;;;;;;4995178;28;20250;-86
2020/12/12 07:45:16;;;;;;;28.00;13.40;;;6.80;96.10;;;;;;4996868;28;20797;-87
2020/12/12 07:47:41;;;;;;;31.58;13.82;;;6.80;96.00;;;;;;5010617;28;20028;-87
2020/12/12 07:50:07;;;;;;;43.67;16.45;;;6.80;96.10;;;;;;5014323;28;20129;-86
2020/12/12 07:52:33;;;;;;;43.10;16.70;;;6.80;96.00;;;;;;4998464;28;20026;-87
2020/12/12 07:57:24;;;;;;;32.13;14.13;;;6.90;96.10;;;;;;5012602;28;20042;-86
2020/12/12 07:59:50;;;;;;;22.08;11.60;;;6.90;96.10;;;;;;4977736;28;20042;-86
2020/12/12 08:02:16;;;;;;;29.85;13.15;;;6.90;96.10;;;;;;5017252;28;20393;-86
2020/12/12 08:04:41;;;;;;;44.08;17.20;;;6.90;96.10;;;;;;5010674;28;20050;-86
2020/12/12 08:07:21;;;;;;;31.73;14.35;;;7.00;96.10;;;;;;4999930;28;20125;-87
2020/12/12 08:09:49;;;;;;;45.65;17.98;;;7.00;96.10;;;;;;5002345;28;20278;-87
2020/12/12 08:12:30;;;;;;;37.13;15.98;;;7.00;96.10;;;;;;5004707;28;20034;-87
2020/12/12 08:15:16;;;;;;;30.60;13.68;;;7.00;96.10;;;;;;5003258;28;20023;-87
2020/12/12 08:17:42;;;;;;;32.75;15.07;;;7.00;96.10;;;;;;5016229;28;20042;-87
2020/12/12 08:20:24;;;;;;;48.58;16.27;;;7.00;96.10;;;;;;5014979;28;20142;-86
2020/12/12 08:22:50;;;;;;;39.50;16.05;;;7.00;96.10;;;;;;5008888;28;20038;-87
2020/12/12 08:25:18;;;;;;;55.67;17.73;;;7.10;96.10;;;;;;5013996;28;20026;-86
2020/12/12 08:27:44;;;;;;;40.80;15.85;;;7.10;96.10;;;;;;5016313;28;20081;-86
2020/12/12 08:30:10;;;;;;;66.10;21.85;;;7.10;96.10;;;;;;5029542;28;20079;-85
2020/12/12 08:32:41;;;;;;;63.05;21.25;;;7.10;96.00;;;;;;5038841;28;20033;-85
2020/12/12 08:35:14;;;;;;;53.13;19.58;;;7.10;96.10;;;;;;5044203;28;20029;-86
2020/12/12 08:37:51;;;;;;;46.10;18.73;;;7.10;96.10;;;;;;5046106;28;20026;-86
2020/12/12 08:40:17;;;;;;;58.95;20.58;;;7.10;96.10;;;;;;5043156;28;20063;-87
2020/12/12 08:42:55;;;;;;;65.05;23.02;;;7.10;96.10;;;;;;5029578;28;20064;-87
2020/12/12 08:45:22;;;;;;;68.55;22.85;;;7.00;96.00;;;;;;5033948;28;20021;-86
2020/12/12 08:48:02;;;;;;;57.72;20.63;;;7.00;96.00;;;;;;5032712;28;20021;-86
2020/12/12 08:50:31;;;;;;;52.35;20.30;;;7.10;96.10;;;;;;5030904;28;20072;-87
2020/12/12 08:53:18;;;;;;;60.10;19.00;;;7.10;96.10;;;;;;5015947;28;20029;-87
2020/12/12 08:56:07;;;;;;;34.08;15.15;;;7.10;96.10;;;;;;5035957;28;20059;-88
2020/12/12 08:59:03;;;;;;;39.83;15.25;;;7.10;96.20;;;;;;5026628;28;20026;-87
2020/12/12 09:01:47;;;;;;;43.00;17.27;;;7.10;96.20;;;;;;5000821;28;20037;-87
2020/12/12 09:04:13;;;;;;;50.00;17.73;;;7.20;96.20;;;;;;5028560;28;20116;-88
2020/12/12 09:06:57;;;;;;;40.15;16.58;;;7.10;96.20;;;;;;5031764;28;20033;-88
2020/12/12 09:09:27;;;;;;;41.92;16.83;;;7.20;96.20;;;;;;5018659;28;20029;-88
2020/12/12 09:12:03;;;;;;;82.20;21.77;;;7.20;96.20;;;;;;5029039;28;20029;-88
2020/12/12 09:14:37;;;;;;;56.47;20.58;;;7.20;96.20;;;;;;5046367;28;20025;-88
2020/12/12 09:17:14;;;;;;;68.97;23.70;;;7.20;96.10;;;;;;5022557;28;20128;-88
2020/12/12 09:19:40;;;;;;;79.07;23.83;;;7.20;96.10;;;;;;5029199;28;20065;-88
2020/12/12 09:22:07;;;;;;;45.40;18.17;;;7.20;96.00;;;;;;5029255;28;20049;-88
2020/12/12 09:24:33;;;;;;;66.28;24.48;;;7.20;96.20;;;;;;5029144;28;20037;-87
2020/12/12 09:26:59;;;;;;;62.75;24.13;;;7.20;96.00;;;;;;5043514;28;20087;-88
2020/12/12 09:29:26;;;;;;;45.97;20.63;;;7.20;96.10;;;;;;5030374;28;20045;-88
2020/12/12 09:31:54;;;;;;;89.90;28.38;;;7.20;96.10;;;;;;5032788;28;20014;-87
2020/12/12 09:34:23;;;;;;;59.75;22.08;;;7.20;95.90;;;;;;5045623;28;20027;-85
2020/12/12 09:36:50;;;;;;;64.50;23.08;;;7.20;96.10;;;;;;5028235;28;20465;-86
2020/12/12 09:39:16;;;;;;;73.95;24.27;;;7.20;96.10;;;;;;5028931;28;20032;-88
2020/12/12 09:41:42;;;;;;;59.63;21.40;;;7.20;96.10;;;;;;5027782;28;20022;-88
2020/12/12 09:44:07;;;;;;;72.32;22.42;;;7.20;96.10;;;;;;5027393;28;20018;-88
2020/12/12 09:46:34;;;;;;;80.22;23.25;;;7.30;96.10;;;;;;5023250;28;20454;-88
2020/12/12 09:48:59;;;;;;;70.35;22.92;;;7.30;96.20;;;;;;5032009;28;20014;-88
2020/12/12 09:51:25;;;;;;;55.38;21.92;;;7.30;96.10;;;;;;5030767;28;20037;-88
2020/12/12 09:53:53;;;;;;;49.55;19.00;;;7.30;96.10;;;;;;5031975;28;20135;-88
2020/12/12 09:56:19;;;;;;;75.07;21.63;;;7.30;96.20;;;;;;5032965;28;20029;-88
2020/12/12 09:58:45;;;;;;;50.70;19.73;;;7.30;96.20;;;;;;5019310;28;20034;-88
2020/12/12 10:01:12;;;;;;;52.88;19.13;;;7.30;96.20;;;;;;5032143;28;20033;-87
2020/12/12 10:03:38;;;;;;;52.33;20.70;;;7.30;96.20;;;;;;5032827;28;20470;-87
2020/12/12 10:06:06;;;;;;;61.90;20.10;;;7.40;96.20;;;;;;5032522;28;20014;-87
2020/12/12 10:08:32;;;;;;;53.40;21.98;;;7.40;96.20;;;;;;5031589;28;20029;-87
2020/12/12 10:11:00;;;;;;;69.03;20.50;;;7.40;96.20;;;;;;5031927;28;20040;-87
2020/12/12 10:13:29;;;;;;;75.35;22.30;;;7.40;96.20;;;;;;5032082;28;20461;-87
2020/12/12 10:15:55;;;;;;;58.33;21.77;;;7.40;96.20;;;;;;5015208;28;20026;-87
2020/12/12 10:18:20;;;;;;;58.67;21.27;;;7.40;96.20;;;;;;5032375;28;20030;-87
2020/12/12 10:20:46;;;;;;;59.83;22.02;;;7.40;96.20;;;;;;5032522;28;20558;-92
2020/12/12 10:23:12;;;;;;;77.88;23.63;;;7.50;96.20;;;;;;5031985;28;20025;-89
2020/12/12 10:25:37;;;;;;;116.93;27.95;;;7.50;96.20;;;;;;5032362;28;20056;-89
2020/12/12 10:28:03;;;;;;;90.38;25.58;;;7.50;96.10;;;;;;5030429;28;20141;-93
2020/12/12 10:30:30;;;;;;;56.35;21.05;;;7.50;96.10;;;;;;5015342;28;20009;-93
2020/12/12 10:33:01;;;;;;;86.43;23.42;;;7.50;96.20;;;;;;5015746;28;20021;-91
2020/12/12 10:35:31;;;;;;;85.22;24.88;;;7.50;96.20;;;;;;5029309;28;20018;-91
2020/12/12 10:37:57;;;;;;;72.03;22.88;;;7.50;96.10;;;;;;5036142;28;20037;-91
2020/12/12 10:40:41;;;;;;;70.38;20.00;;;7.50;96.40;;;;;;5021747;28;20040;-91
2020/12/12 10:43:12;;;;;;;63.03;21.17;;;7.60;96.30;;;;;;5015942;28;20037;-92
2020/12/12 10:45:42;;;;;;;;;;;7.60;96.30;;;;;;5017532;28;20053;-92
2020/12/12 10:48:12;;;;;;;67.63;19.83;;;7.60;96.20;;;;;;5032243;28;19999;-91
2020/12/12 10:50:38;;;;;;;45.10;17.20;;;7.60;96.30;;;;;;4999229;28;20474;-84
2020/12/12 10:53:03;;;;;;;92.05;26.52;;;7.60;96.30;;;;;;5000469;28;20267;-94
2020/12/12 10:55:33;;;;;;;87.75;26.17;;;7.60;96.20;;;;;;5046267;28;20025;-92
2020/12/12 10:58:00;;;;;;;73.93;23.00;;;7.60;96.20;;;;;;5018245;28;20021;-89
2020/12/12 11:00:39;;;;;;;46.88;19.35;;;7.60;96.30;;;;;;5017206;28;20029;-89
2020/12/12 11:03:07;;;;;;;62.05;20.83;;;7.70;96.40;;;;;;5020805;28;20021;-88
2020/12/12 11:05:33;;;;;;;75.90;21.38;;;7.70;96.30;;;;;;5018099;28;20021;-89
2020/12/12 11:07:59;;;;;;;69.45;22.17;;;7.80;96.40;;;;;;5027860;28;20029;-88
2020/12/12 11:10:25;;;;;;;50.15;18.88;;;7.80;96.30;;;;;;5003959;28;20393;-89
2020/12/12 11:12:50;;;;;;;59.00;19.65;;;7.80;96.30;;;;;;5024775;28;20014;-89
2020/12/12 11:15:24;;;;;;;73.43;22.08;;;7.80;96.60;;;;;;5017891;28;20018;-89
2020/12/12 11:17:50;;;;;;;60.72;21.27;;;7.80;96.30;;;;;;5020078;28;20095;-86
2020/12/12 11:20:16;;;;;;;41.40;18.45;;;7.90;96.40;;;;;;5014043;28;20039;-85
2020/12/12 11:22:45;;;;;;;47.67;18.45;;;7.90;96.40;;;;;;5013053;28;20125;-89
2020/12/12 11:25:11;;;;;;;49.63;19.75;;;7.90;96.70;;;;;;5049455;28;20024;-89
2020/12/12 11:27:38;;;;;;;78.18;23.95;;;7.90;96.40;;;;;;5024678;28;20077;-90
2020/12/12 11:30:07;;;;;;;47.33;19.00;;;8.00;96.30;;;;;;5003877;28;20048;-89
2020/12/12 11:32:32;;;;;;;53.13;20.63;;;8.00;96.40;;;;;;5019601;28;20017;-89
2020/12/12 11:35:19;;;;;;;44.25;17.50;;;8.00;96.40;;;;;;5019874;28;20392;-88
2020/12/12 11:38:10;;;;;;;76.68;23.23;;;8.00;96.40;;;;;;5022310;28;20029;-88
2020/12/12 11:48:05;;;;;;;75.20;25.08;;;8.10;96.50;;;;;;5035564;28;20037;-90
2020/12/12 11:50:31;;;;;;;92.15;26.98;;;8.10;96.30;;;;;;5017737;28;20461;-87
2020/12/12 11:53:00;;;;;;;123.20;33.92;;;8.10;96.30;;;;;;5034342;28;20072;-86
2020/12/12 11:55:26;;;;;;;86.78;27.58;;;8.10;96.10;;;;;;5018085;28;20033;-88
2020/12/12 11:57:51;;;;;;;153.13;36.60;;;8.00;96.20;;;;;;5018493;28;20045;-87
2020/12/12 12:00:18;;;;;;;89.80;27.63;;;8.10;96.20;;;;;;5033667;28;20029;-87
2020/12/12 12:02:44;;;;;;;71.55;25.60;;;8.10;96.30;;;;;;5030169;28;20490;-88
2020/12/12 12:05:13;;;;;;;86.45;28.17;;;8.10;96.30;;;;;;5017474;28;20036;-88
2020/12/12 12:07:49;;;;;;;74.03;25.42;;;8.10;96.30;;;;;;5000081;28;20029;-87
2020/12/12 12:12:46;;;;;;;117.20;29.88;;;8.20;96.70;;;;;;5035380;28;20683;-87
2020/12/12 12:15:12;;;;;;;105.28;29.67;;;8.20;96.30;;;;;;5034748;28;20116;-87
2020/12/12 12:17:37;;;;;;;119.85;34.65;;;8.20;96.30;;;;;;5036623;28;20172;-87
2020/12/12 12:20:05;;;;;;;85.35;28.15;;;8.20;96.30;;;;;;5017441;28;20017;-87
2020/12/12 12:22:30;;;;;;;169.20;38.72;;;8.20;96.50;;;;;;5019127;28;20114;-88
2020/12/12 12:24:57;;;;;;;218.63;41.03;;;8.20;96.50;;;;;;5038942;28;20022;-88
2020/12/12 12:27:23;;;;;;;204.30;40.42;;;8.20;96.50;;;;;;5033062;28;20025;-87
2020/12/12 12:29:50;;;;;;;130.88;33.05;;;8.30;96.60;;;;;;4991276;28;20025;-87
2020/12/12 12:32:16;;;;;;;219.05;43.17;;;8.30;96.70;;;;;;5008011;28;20018;-86
2020/12/12 12:34:41;;;;;;;130.43;32.22;;;8.30;96.60;;;;;;5024055;28;20049;-84
2020/12/12 12:37:07;;;;;;;138.02;32.65;;;8.30;96.70;;;;;;4988403;28;20146;-87
2020/12/12 12:39:33;;;;;;;126.38;30.42;;;8.30;96.70;;;;;;5039236;28;20033;-89
2020/12/12 12:41:59;;;;;;;91.43;27.67;;;8.40;96.70;;;;;;4995382;28;20080;-88
2020/12/12 12:44:28;;;;;;;206.40;39.70;;;8.40;96.70;;;;;;5014375;28;20018;-88
2020/12/12 12:46:57;;;;;;;152.10;33.45;;;8.50;96.60;;;;;;4997128;28;20026;-88
2020/12/12 12:49:22;;;;;;;122.13;31.90;;;8.50;96.70;;;;;;4997918;28;20021;-89
2020/12/12 12:51:51;;;;;;;145.25;32.25;;;8.50;96.70;;;;;;4999692;28;20025;-88
2020/12/12 12:54:18;;;;;;;154.85;34.33;;;8.50;96.70;;;;;;4981090;28;20025;-84